sensor_id;sensor_type;location;lat;lon;timestamp;P1;durP1;ratioP1;P2;durP2;ratioP2
40072;SDS011;25774;52.256;9.356;2023-02-18T00:00:04;9.10;;;1.00;;
40072;SDS011;25774;52.256;9.356;2023-02-18T00:02:32;4.68;;;0.77;;
40072;SDS011;25774;52.256;9.356;2023-02-18T00:04:58;6.00;;;0.65;;
40072;SDS011;25774;52.256;9.356;2023-02-18T00:07:23;12.03;;;0.73;;
40072;SDS011;25774;52.256;9.356;2023-02-18T00:09:48;4.63;;;1.23;;
40072;SDS011;25774;52.256;9.356;2023-02-18T00:12:13;9.33;;;1.53;;
40072;SDS011;25774;52.256;9.356;2023-02-18T00:14:39;7.93;;;1.30;;
40072;SDS011;25774;52.256;9.356;2023-02-18T00:17:04;7.60;;;0.80;;
40072;SDS011;25774;52.256;9.356;2023-02-18T00:19:29;6.03;;;1.70;;
40072;SDS011;25774;52.256;9.356;2023-02-18T00:21:55;9.53;;;0.73;;
40072;SDS011;25774;52.256;9.356;2023-02-18T00:24:20;5.17;;;0.60;;
40072;SDS011;25774;52.256;9.356;2023-02-18T00:26:48;5.38;;;1.02;;
40072;SDS011;25774;52.256;9.356;2023-02-18T00:29:17;4.65;;;1.15;;
40072;SDS011;25774;52.256;9.356;2023-02-18T00:31:43;7.88;;;0.80;;
40072;SDS011;25774;52.256;9.356;2023-02-18T00:34:08;4.17;;;1.07;;
40072;SDS011;25774;52.256;9.356;2023-02-18T00:36:35;7.35;;;0.85;;
40072;SDS011;25774;52.256;9.356;2023-02-18T00:39:03;8.27;;;1.27;;
40072;SDS011;25774;52.256;9.356;2023-02-18T00:41:30;9.32;;;0.80;;
40072;SDS011;25774;52.256;9.356;2023-02-18T00:43:56;7.15;;;0.95;;
40072;SDS011;25774;52.256;9.356;2023-02-18T00:46:22;3.72;;;0.60;;
40072;SDS011;25774;52.256;9.356;2023-02-18T00:48:48;3.72;;;0.63;;
40072;SDS011;25774;52.256;9.356;2023-02-18T00:51:13;6.87;;;0.60;;
40072;SDS011;25774;52.256;9.356;2023-02-18T00:53:39;5.17;;;0.60;;
40072;SDS011;25774;52.256;9.356;2023-02-18T00:56:05;4.50;;;1.20;;
40072;SDS011;25774;52.256;9.356;2023-02-18T00:58:31;5.95;;;0.60;;
40072;SDS011;25774;52.256;9.356;2023-02-18T01:00:57;5.57;;;0.90;;
40072;SDS011;25774;52.256;9.356;2023-02-18T01:03:22;5.83;;;0.80;;
40072;SDS011;25774;52.256;9.356;2023-02-18T01:05:48;1.83;;;0.50;;
40072;SDS011;25774;52.256;9.356;2023-02-18T01:08:15;4.38;;;0.77;;
40072;SDS011;25774;52.256;9.356;2023-02-18T01:10:43;7.43;;;0.85;;
40072;SDS011;25774;52.256;9.356;2023-02-18T01:13:10;3.00;;;0.50;;
40072;SDS011;25774;52.256;9.356;2023-02-18T01:15:36;9.43;;;1.20;;
40072;SDS011;25774;52.256;9.356;2023-02-18T01:18:02;6.10;;;0.80;;
40072;SDS011;25774;52.256;9.356;2023-02-18T01:20:28;12.53;;;1.30;;
40072;SDS011;25774;52.256;9.356;2023-02-18T01:22:53;4.17;;;0.60;;
40072;SDS011;25774;52.256;9.356;2023-02-18T01:25:19;3.23;;;0.77;;
40072;SDS011;25774;52.256;9.356;2023-02-18T01:27:44;6.93;;;0.90;;
40072;SDS011;25774;52.256;9.356;2023-02-18T01:30:11;5.87;;;0.80;;
40072;SDS011;25774;52.256;9.356;2023-02-18T01:32:39;10.10;;;1.60;;
40072;SDS011;25774;52.256;9.356;2023-02-18T01:35:05;7.87;;;0.83;;
40072;SDS011;25774;52.256;9.356;2023-02-18T01:37:31;13.77;;;2.15;;
40072;SDS011;25774;52.256;9.356;2023-02-18T01:39:58;10.03;;;1.10;;
40072;SDS011;25774;52.256;9.356;2023-02-18T01:42:25;8.15;;;1.05;;
40072;SDS011;25774;52.256;9.356;2023-02-18T01:45:28;8.45;;;1.00;;
40072;SDS011;25774;52.256;9.356;2023-02-18T01:48:17;12.20;;;1.75;;
40072;SDS011;25774;52.256;9.356;2023-02-18T01:53:47;10.18;;;1.42;;
40072;SDS011;25774;52.256;9.356;2023-02-18T01:56:25;13.93;;;2.60;;
40072;SDS011;25774;52.256;9.356;2023-02-18T01:59:01;9.32;;;2.35;;
40072;SDS011;25774;52.256;9.356;2023-02-18T02:01:30;8.85;;;1.67;;
40072;SDS011;25774;52.256;9.356;2023-02-18T02:06:22;15.00;;;1.98;;
40072;SDS011;25774;52.256;9.356;2023-02-18T02:08:48;10.95;;;2.30;;
40072;SDS011;25774;52.256;9.356;2023-02-18T02:16:29;10.27;;;3.10;;
40072;SDS011;25774;52.256;9.356;2023-02-18T02:24:56;16.00;;;4.78;;
40072;SDS011;25774;52.256;9.356;2023-02-18T02:36:23;20.75;;;6.60;;
40072;SDS011;25774;52.256;9.356;2023-02-18T02:38:57;19.52;;;7.78;;
40072;SDS011;25774;52.256;9.356;2023-02-18T02:46:40;22.38;;;9.38;;
40072;SDS011;25774;52.256;9.356;2023-02-18T02:51:58;21.65;;;9.52;;
40072;SDS011;25774;52.256;9.356;2023-02-18T02:54:29;19.88;;;8.40;;
40072;SDS011;25774;52.256;9.356;2023-02-18T02:59:42;23.48;;;9.68;;
40072;SDS011;25774;52.256;9.356;2023-02-18T03:08:17;33.75;;;12.05;;
40072;SDS011;25774;52.256;9.356;2023-02-18T03:11:09;22.80;;;11.18;;
40072;SDS011;25774;52.256;9.356;2023-02-18T03:13:56;27.40;;;12.32;;
40072;SDS011;25774;52.256;9.356;2023-02-18T03:16:57;24.23;;;12.05;;
40072;SDS011;25774;52.256;9.356;2023-02-18T03:22:05;24.73;;;11.10;;
40072;SDS011;25774;52.256;9.356;2023-02-18T03:24:43;31.48;;;12.35;;
40072;SDS011;25774;52.256;9.356;2023-02-18T03:27:15;30.20;;;12.90;;
40072;SDS011;25774;52.256;9.356;2023-02-18T03:29:45;25.75;;;12.20;;
40072;SDS011;25774;52.256;9.356;2023-02-18T03:32:17;29.38;;;12.63;;
40072;SDS011;25774;52.256;9.356;2023-02-18T03:34:47;36.25;;;14.00;;
40072;SDS011;25774;52.256;9.356;2023-02-18T03:37:21;29.38;;;14.02;;
40072;SDS011;25774;52.256;9.356;2023-02-18T03:39:48;29.35;;;13.80;;
40072;SDS011;25774;52.256;9.356;2023-02-18T03:42:17;32.35;;;13.63;;
40072;SDS011;25774;52.256;9.356;2023-02-18T03:44:43;31.95;;;15.18;;
40072;SDS011;25774;52.256;9.356;2023-02-18T03:47:09;34.28;;;14.70;;
40072;SDS011;25774;52.256;9.356;2023-02-18T03:49:35;33.22;;;15.00;;
40072;SDS011;25774;52.256;9.356;2023-02-18T03:52:00;30.77;;;15.13;;
40072;SDS011;25774;52.256;9.356;2023-02-18T03:54:26;32.10;;;15.47;;
40072;SDS011;25774;52.256;9.356;2023-02-18T03:56:51;33.43;;;15.17;;
40072;SDS011;25774;52.256;9.356;2023-02-18T03:59:17;35.00;;;15.07;;
40072;SDS011;25774;52.256;9.356;2023-02-18T04:04:09;30.47;;;14.10;;
40072;SDS011;25774;52.256;9.356;2023-02-18T04:06:34;35.15;;;16.33;;
40072;SDS011;25774;52.256;9.356;2023-02-18T04:08:59;34.77;;;15.80;;
40072;SDS011;25774;52.256;9.356;2023-02-18T04:11:25;35.63;;;14.90;;
40072;SDS011;25774;52.256;9.356;2023-02-18T04:13:50;34.20;;;15.53;;
40072;SDS011;25774;52.256;9.356;2023-02-18T04:16:15;39.77;;;16.90;;
40072;SDS011;25774;52.256;9.356;2023-02-18T04:18:41;38.90;;;17.10;;
40072;SDS011;25774;52.256;9.356;2023-02-18T04:21:06;42.60;;;17.67;;
40072;SDS011;25774;52.256;9.356;2023-02-18T04:23:31;35.17;;;16.70;;
40072;SDS011;25774;52.256;9.356;2023-02-18T04:25:57;33.40;;;16.90;;
40072;SDS011;25774;52.256;9.356;2023-02-18T04:28:22;35.20;;;15.70;;
40072;SDS011;25774;52.256;9.356;2023-02-18T04:30:48;36.00;;;15.97;;
40072;SDS011;25774;52.256;9.356;2023-02-18T04:33:13;34.10;;;16.47;;
40072;SDS011;25774;52.256;9.356;2023-02-18T04:35:39;35.50;;;16.58;;
40072;SDS011;25774;52.256;9.356;2023-02-18T04:38:05;33.28;;;17.05;;
40072;SDS011;25774;52.256;9.356;2023-02-18T04:40:32;40.30;;;16.98;;
40072;SDS011;25774;52.256;9.356;2023-02-18T04:42:57;40.40;;;17.70;;
40072;SDS011;25774;52.256;9.356;2023-02-18T04:45:24;36.50;;;15.05;;
40072;SDS011;25774;52.256;9.356;2023-02-18T04:47:51;41.67;;;17.15;;
40072;SDS011;25774;52.256;9.356;2023-02-18T04:50:17;33.70;;;16.35;;
40072;SDS011;25774;52.256;9.356;2023-02-18T04:52:43;41.70;;;17.05;;
40072;SDS011;25774;52.256;9.356;2023-02-18T04:55:08;39.50;;;17.50;;
40072;SDS011;25774;52.256;9.356;2023-02-18T04:57:33;34.87;;;16.47;;
40072;SDS011;25774;52.256;9.356;2023-02-18T04:59:58;41.03;;;18.43;;
40072;SDS011;25774;52.256;9.356;2023-02-18T05:02:24;35.83;;;15.97;;
40072;SDS011;25774;52.256;9.356;2023-02-18T05:04:49;38.20;;;16.83;;
40072;SDS011;25774;52.256;9.356;2023-02-18T05:07:15;31.03;;;15.23;;
40072;SDS011;25774;52.256;9.356;2023-02-18T05:09:40;33.70;;;14.33;;
40072;SDS011;25774;52.256;9.356;2023-02-18T05:12:05;30.67;;;13.70;;
40072;SDS011;25774;52.256;9.356;2023-02-18T05:14:31;26.60;;;12.30;;
40072;SDS011;25774;52.256;9.356;2023-02-18T05:16:56;22.93;;;11.07;;
40072;SDS011;25774;52.256;9.356;2023-02-18T05:19:21;23.30;;;10.70;;
40072;SDS011;25774;52.256;9.356;2023-02-18T05:21:48;27.87;;;11.10;;
40072;SDS011;25774;52.256;9.356;2023-02-18T05:24:13;24.88;;;11.23;;
40072;SDS011;25774;52.256;9.356;2023-02-18T05:26:39;22.90;;;10.67;;
40072;SDS011;25774;52.256;9.356;2023-02-18T05:29:04;22.43;;;10.80;;
40072;SDS011;25774;52.256;9.356;2023-02-18T05:31:30;24.00;;;10.17;;
40072;SDS011;25774;52.256;9.356;2023-02-18T05:33:55;22.20;;;10.13;;
40072;SDS011;25774;52.256;9.356;2023-02-18T05:36:20;21.90;;;11.20;;
40072;SDS011;25774;52.256;9.356;2023-02-18T05:38:46;23.40;;;9.33;;
40072;SDS011;25774;52.256;9.356;2023-02-18T05:41:11;23.90;;;11.73;;
40072;SDS011;25774;52.256;9.356;2023-02-18T05:43:36;21.50;;;10.67;;
40072;SDS011;25774;52.256;9.356;2023-02-18T05:46:20;29.73;;;11.63;;
40072;SDS011;25774;52.256;9.356;2023-02-18T05:48:46;26.10;;;11.40;;
40072;SDS011;25774;52.256;9.356;2023-02-18T05:51:11;22.87;;;11.13;;
40072;SDS011;25774;52.256;9.356;2023-02-18T05:53:37;26.90;;;11.43;;
40072;SDS011;25774;52.256;9.356;2023-02-18T05:56:02;28.50;;;11.30;;
40072;SDS011;25774;52.256;9.356;2023-02-18T05:58:28;28.63;;;11.97;;
40072;SDS011;25774;52.256;9.356;2023-02-18T06:03:19;23.17;;;10.20;;
40072;SDS011;25774;52.256;9.356;2023-02-18T06:05:47;24.70;;;10.40;;
40072;SDS011;25774;52.256;9.356;2023-02-18T06:08:14;24.77;;;10.38;;
40072;SDS011;25774;52.256;9.356;2023-02-18T06:10:39;22.80;;;11.27;;
40072;SDS011;25774;52.256;9.356;2023-02-18T06:13:05;19.50;;;9.10;;
40072;SDS011;25774;52.256;9.356;2023-02-18T06:15:30;23.23;;;9.33;;
40072;SDS011;25774;52.256;9.356;2023-02-18T06:17:55;18.30;;;9.07;;
40072;SDS011;25774;52.256;9.356;2023-02-18T06:20:21;17.90;;;9.10;;
40072;SDS011;25774;52.256;9.356;2023-02-18T06:22:46;18.10;;;8.07;;
40072;SDS011;25774;52.256;9.356;2023-02-18T06:25:11;17.73;;;8.43;;
40072;SDS011;25774;52.256;9.356;2023-02-18T06:27:37;17.03;;;8.33;;
40072;SDS011;25774;52.256;9.356;2023-02-18T06:30:02;13.23;;;6.13;;
40072;SDS011;25774;52.256;9.356;2023-02-18T06:34:53;11.03;;;5.03;;
40072;SDS011;25774;52.256;9.356;2023-02-18T06:37:19;13.90;;;5.90;;
40072;SDS011;25774;52.256;9.356;2023-02-18T06:39:44;10.30;;;4.60;;
40072;SDS011;25774;52.256;9.356;2023-02-18T06:42:09;11.80;;;5.97;;
40072;SDS011;25774;52.256;9.356;2023-02-18T06:44:35;11.67;;;5.60;;
40072;SDS011;25774;52.256;9.356;2023-02-18T06:47:00;10.03;;;5.27;;
40072;SDS011;25774;52.256;9.356;2023-02-18T06:49:25;12.30;;;6.07;;
40072;SDS011;25774;52.256;9.356;2023-02-18T06:51:51;13.03;;;5.73;;
40072;SDS011;25774;52.256;9.356;2023-02-18T06:54:16;12.23;;;6.20;;
40072;SDS011;25774;52.256;9.356;2023-02-18T06:56:42;14.17;;;6.70;;
40072;SDS011;25774;52.256;9.356;2023-02-18T06:59:08;13.45;;;6.07;;
40072;SDS011;25774;52.256;9.356;2023-02-18T07:01:33;12.73;;;5.90;;
40072;SDS011;25774;52.256;9.356;2023-02-18T07:03:58;11.27;;;5.67;;
40072;SDS011;25774;52.256;9.356;2023-02-18T07:06:24;13.23;;;6.67;;
40072;SDS011;25774;52.256;9.356;2023-02-18T07:08:49;12.13;;;6.00;;
40072;SDS011;25774;52.256;9.356;2023-02-18T07:11:14;12.67;;;6.37;;
40072;SDS011;25774;52.256;9.356;2023-02-18T07:13:40;11.13;;;5.77;;
40072;SDS011;25774;52.256;9.356;2023-02-18T07:16:05;13.07;;;6.10;;
40072;SDS011;25774;52.256;9.356;2023-02-18T07:18:31;12.40;;;5.95;;
40072;SDS011;25774;52.256;9.356;2023-02-18T07:20:56;13.63;;;6.10;;
40072;SDS011;25774;52.256;9.356;2023-02-18T07:23:21;12.67;;;6.27;;
40072;SDS011;25774;52.256;9.356;2023-02-18T07:25:47;17.67;;;7.37;;
40072;SDS011;25774;52.256;9.356;2023-02-18T07:28:12;11.57;;;5.23;;
40072;SDS011;25774;52.256;9.356;2023-02-18T07:30:37;11.27;;;5.50;;
40072;SDS011;25774;52.256;9.356;2023-02-18T07:33:03;12.93;;;5.20;;
40072;SDS011;25774;52.256;9.356;2023-02-18T07:35:28;8.90;;;4.53;;
40072;SDS011;25774;52.256;9.356;2023-02-18T07:37:54;10.03;;;4.03;;
40072;SDS011;25774;52.256;9.356;2023-02-18T07:40:22;8.32;;;4.68;;
40072;SDS011;25774;52.256;9.356;2023-02-18T07:42:48;8.85;;;4.32;;
40072;SDS011;25774;52.256;9.356;2023-02-18T07:45:13;11.03;;;3.90;;
40072;SDS011;25774;52.256;9.356;2023-02-18T07:47:39;7.65;;;3.90;;
40072;SDS011;25774;52.256;9.356;2023-02-18T07:50:06;8.98;;;4.00;;
40072;SDS011;25774;52.256;9.356;2023-02-18T07:54:58;6.03;;;3.13;;
40072;SDS011;25774;52.256;9.356;2023-02-18T07:57:24;6.23;;;2.93;;
40072;SDS011;25774;52.256;9.356;2023-02-18T08:02:19;5.97;;;2.83;;
40072;SDS011;25774;52.256;9.356;2023-02-18T08:04:46;5.07;;;1.70;;
40072;SDS011;25774;52.256;9.356;2023-02-18T08:07:13;4.88;;;2.13;;
40072;SDS011;25774;52.256;9.356;2023-02-18T08:09:41;6.57;;;2.13;;
40072;SDS011;25774;52.256;9.356;2023-02-18T08:12:07;4.03;;;1.50;;
40072;SDS011;25774;52.256;9.356;2023-02-18T08:14:32;3.78;;;1.33;;
40072;SDS011;25774;52.256;9.356;2023-02-18T08:16:58;2.73;;;1.20;;
40072;SDS011;25774;52.256;9.356;2023-02-18T08:19:23;5.00;;;1.87;;
40072;SDS011;25774;52.256;9.356;2023-02-18T08:21:51;4.13;;;1.87;;
40072;SDS011;25774;52.256;9.356;2023-02-18T08:24:17;3.47;;;1.50;;
40072;SDS011;25774;52.256;9.356;2023-02-18T08:26:42;3.87;;;1.80;;
40072;SDS011;25774;52.256;9.356;2023-02-18T08:29:08;3.00;;;1.30;;
40072;SDS011;25774;52.256;9.356;2023-02-18T08:31:33;3.20;;;1.73;;
40072;SDS011;25774;52.256;9.356;2023-02-18T08:33:58;4.50;;;2.10;;
40072;SDS011;25774;52.256;9.356;2023-02-18T08:36:25;4.20;;;1.80;;
40072;SDS011;25774;52.256;9.356;2023-02-18T08:38:51;2.97;;;1.45;;
40072;SDS011;25774;52.256;9.356;2023-02-18T08:41:16;4.80;;;1.57;;
40072;SDS011;25774;52.256;9.356;2023-02-18T08:46:08;3.03;;;1.63;;
40072;SDS011;25774;52.256;9.356;2023-02-18T08:48:33;2.40;;;1.40;;
40072;SDS011;25774;52.256;9.356;2023-02-18T08:50:58;2.60;;;1.30;;
40072;SDS011;25774;52.256;9.356;2023-02-18T08:53:24;3.67;;;1.93;;
40072;SDS011;25774;52.256;9.356;2023-02-18T08:55:49;2.53;;;1.40;;
40072;SDS011;25774;52.256;9.356;2023-02-18T08:58:15;2.53;;;1.40;;
40072;SDS011;25774;52.256;9.356;2023-02-18T09:00:41;1.85;;;1.10;;
40072;SDS011;25774;52.256;9.356;2023-02-18T09:03:10;1.65;;;0.98;;
40072;SDS011;25774;52.256;9.356;2023-02-18T09:05:38;2.92;;;1.20;;
40072;SDS011;25774;52.256;9.356;2023-02-18T09:08:04;1.92;;;1.00;;
40072;SDS011;25774;52.256;9.356;2023-02-18T09:10:30;1.33;;;0.85;;
40072;SDS011;25774;52.256;9.356;2023-02-18T09:12:55;1.73;;;0.83;;
40072;SDS011;25774;52.256;9.356;2023-02-18T09:15:21;1.90;;;0.97;;
40072;SDS011;25774;52.256;9.356;2023-02-18T09:17:46;2.77;;;0.87;;
40072;SDS011;25774;52.256;9.356;2023-02-18T09:20:11;2.27;;;0.90;;
40072;SDS011;25774;52.256;9.356;2023-02-18T09:22:37;1.83;;;1.00;;
40072;SDS011;25774;52.256;9.356;2023-02-18T09:25:03;1.63;;;0.80;;
40072;SDS011;25774;52.256;9.356;2023-02-18T09:27:29;1.63;;;0.65;;
40072;SDS011;25774;52.256;9.356;2023-02-18T09:29:54;3.00;;;0.80;;
40072;SDS011;25774;52.256;9.356;2023-02-18T09:32:19;2.67;;;1.10;;
40072;SDS011;25774;52.256;9.356;2023-02-18T09:34:45;1.80;;;0.90;;
40072;SDS011;25774;52.256;9.356;2023-02-18T09:37:10;2.20;;;1.00;;
40072;SDS011;25774;52.256;9.356;2023-02-18T09:39:36;1.70;;;0.90;;
40072;SDS011;25774;52.256;9.356;2023-02-18T09:42:03;3.05;;;0.93;;
40072;SDS011;25774;52.256;9.356;2023-02-18T09:44:33;2.13;;;1.00;;
40072;SDS011;25774;52.256;9.356;2023-02-18T09:47:06;2.40;;;1.10;;
40072;SDS011;25774;52.256;9.356;2023-02-18T09:49:38;2.03;;;1.10;;
40072;SDS011;25774;52.256;9.356;2023-02-18T09:52:20;2.13;;;0.98;;
40072;SDS011;25774;52.256;9.356;2023-02-18T09:54:50;1.90;;;1.02;;
40072;SDS011;25774;52.256;9.356;2023-02-18T10:00:16;2.30;;;1.15;;
40072;SDS011;25774;52.256;9.356;2023-02-18T10:03:04;2.33;;;1.00;;
40072;SDS011;25774;52.256;9.356;2023-02-18T10:05:30;1.65;;;0.73;;
40072;SDS011;25774;52.256;9.356;2023-02-18T10:08:10;1.63;;;0.70;;
40072;SDS011;25774;52.256;9.356;2023-02-18T10:10:44;1.88;;;0.90;;
40072;SDS011;25774;52.256;9.356;2023-02-18T10:13:29;1.42;;;0.85;;
40072;SDS011;25774;52.256;9.356;2023-02-18T10:15:57;3.45;;;1.02;;
40072;SDS011;25774;52.256;9.356;2023-02-18T10:20:50;1.58;;;0.80;;
40072;SDS011;25774;52.256;9.356;2023-02-18T10:23:18;1.80;;;0.90;;
40072;SDS011;25774;52.256;9.356;2023-02-18T10:25:45;1.73;;;0.90;;
40072;SDS011;25774;52.256;9.356;2023-02-18T10:28:12;1.50;;;0.73;;
40072;SDS011;25774;52.256;9.356;2023-02-18T10:30:39;1.80;;;0.88;;
40072;SDS011;25774;52.256;9.356;2023-02-18T10:33:31;2.95;;;0.80;;
40072;SDS011;25774;52.256;9.356;2023-02-18T10:36:23;2.22;;;0.80;;
40072;SDS011;25774;52.256;9.356;2023-02-18T10:41:44;2.28;;;0.70;;
40072;SDS011;25774;52.256;9.356;2023-02-18T10:47:36;1.30;;;0.70;;
40072;SDS011;25774;52.256;9.356;2023-02-18T10:52:35;1.85;;;0.80;;
40072;SDS011;25774;52.256;9.356;2023-02-18T10:55:11;1.30;;;0.90;;
40072;SDS011;25774;52.256;9.356;2023-02-18T10:57:53;1.45;;;0.80;;
40072;SDS011;25774;52.256;9.356;2023-02-18T11:00:23;1.35;;;0.80;;
40072;SDS011;25774;52.256;9.356;2023-02-18T11:05:42;1.38;;;0.77;;
40072;SDS011;25774;52.256;9.356;2023-02-18T11:08:10;3.58;;;1.30;;
40072;SDS011;25774;52.256;9.356;2023-02-18T11:10:42;1.90;;;1.00;;
40072;SDS011;25774;52.256;9.356;2023-02-18T11:13:11;1.35;;;0.75;;
40072;SDS011;25774;52.256;9.356;2023-02-18T11:15:52;1.40;;;0.80;;
40072;SDS011;25774;52.256;9.356;2023-02-18T11:20:56;2.05;;;1.30;;
40072;SDS011;25774;52.256;9.356;2023-02-18T11:23:23;2.75;;;1.42;;
40072;SDS011;25774;52.256;9.356;2023-02-18T11:28:35;2.45;;;1.30;;
40072;SDS011;25774;52.256;9.356;2023-02-18T11:31:06;2.22;;;1.35;;
40072;SDS011;25774;52.256;9.356;2023-02-18T11:33:38;1.80;;;1.05;;
40072;SDS011;25774;52.256;9.356;2023-02-18T11:41:12;3.55;;;1.30;;
40072;SDS011;25774;52.256;9.356;2023-02-18T11:43:40;4.22;;;0.80;;
40072;SDS011;25774;52.256;9.356;2023-02-18T11:46:13;2.45;;;0.88;;
40072;SDS011;25774;52.256;9.356;2023-02-18T11:48:39;1.50;;;0.85;;
40072;SDS011;25774;52.256;9.356;2023-02-18T11:51:05;1.38;;;0.70;;
40072;SDS011;25774;52.256;9.356;2023-02-18T11:53:32;2.03;;;1.05;;
40072;SDS011;25774;52.256;9.356;2023-02-18T11:56:00;2.58;;;1.00;;
40072;SDS011;25774;52.256;9.356;2023-02-18T11:58:35;2.03;;;1.13;;
40072;SDS011;25774;52.256;9.356;2023-02-18T12:01:04;1.80;;;0.98;;
40072;SDS011;25774;52.256;9.356;2023-02-18T12:06:12;1.58;;;1.00;;
40072;SDS011;25774;52.256;9.356;2023-02-18T12:08:46;2.22;;;0.98;;
40072;SDS011;25774;52.256;9.356;2023-02-18T12:11:18;1.77;;;0.90;;
40072;SDS011;25774;52.256;9.356;2023-02-18T12:13:52;10.07;;;1.00;;
40072;SDS011;25774;52.256;9.356;2023-02-18T12:16:38;1.67;;;0.65;;
40072;SDS011;25774;52.256;9.356;2023-02-18T12:33:07;1.83;;;0.85;;
40072;SDS011;25774;52.256;9.356;2023-02-18T12:35:48;1.48;;;0.63;;
40072;SDS011;25774;52.256;9.356;2023-02-18T13:16:30;1.45;;;0.80;;
40072;SDS011;25774;52.256;9.356;2023-02-18T13:21:41;1.77;;;0.70;;
40072;SDS011;25774;52.256;9.356;2023-02-18T13:24:31;3.85;;;1.05;;
40072;SDS011;25774;52.256;9.356;2023-02-18T13:27:02;2.17;;;0.88;;
40072;SDS011;25774;52.256;9.356;2023-02-18T13:29:39;1.80;;;0.88;;
40072;SDS011;25774;52.256;9.356;2023-02-18T13:35:08;5.38;;;1.13;;
40072;SDS011;25774;52.256;9.356;2023-02-18T13:40:35;2.30;;;1.23;;
40072;SDS011;25774;52.256;9.356;2023-02-18T13:46:29;2.80;;;1.27;;
40072;SDS011;25774;52.256;9.356;2023-02-18T13:48:44;3.63;;;1.60;;
40072;SDS011;25774;52.256;9.356;2023-02-18T13:51:13;4.47;;;1.45;;
40072;SDS011;25774;52.256;9.356;2023-02-18T13:53:41;3.13;;;1.20;;
40072;SDS011;25774;52.256;9.356;2023-02-18T13:58:51;4.75;;;1.15;;
40072;SDS011;25774;52.256;9.356;2023-02-18T14:01:21;5.05;;;1.30;;
40072;SDS011;25774;52.256;9.356;2023-02-18T14:03:55;1.75;;;0.85;;
40072;SDS011;25774;52.256;9.356;2023-02-18T14:06:23;4.10;;;1.33;;
40072;SDS011;25774;52.256;9.356;2023-02-18T14:08:49;3.05;;;1.30;;
40072;SDS011;25774;52.256;9.356;2023-02-18T14:16:09;3.30;;;1.30;;
40072;SDS011;25774;52.256;9.356;2023-02-18T14:23:40;4.97;;;1.38;;
40072;SDS011;25774;52.256;9.356;2023-02-18T14:26:24;4.57;;;1.75;;
40072;SDS011;25774;52.256;9.356;2023-02-18T14:29:09;3.55;;;1.00;;
40072;SDS011;25774;52.256;9.356;2023-02-18T14:50:58;4.82;;;2.58;;
40072;SDS011;25774;52.256;9.356;2023-02-18T14:53:25;3.55;;;2.10;;
40072;SDS011;25774;52.256;9.356;2023-02-18T14:56:01;6.18;;;2.05;;
40072;SDS011;25774;52.256;9.356;2023-02-18T15:01:20;3.58;;;1.80;;
40072;SDS011;25774;52.256;9.356;2023-02-18T15:03:47;4.00;;;1.80;;
40072;SDS011;25774;52.256;9.356;2023-02-18T15:06:20;7.28;;;3.65;;
40072;SDS011;25774;52.256;9.356;2023-02-18T15:08:46;5.35;;;2.08;;
40072;SDS011;25774;52.256;9.356;2023-02-18T15:11:12;3.42;;;2.03;;
40072;SDS011;25774;52.256;9.356;2023-02-18T15:13:40;9.02;;;2.97;;
40072;SDS011;25774;52.256;9.356;2023-02-18T15:16:12;4.85;;;2.90;;
40072;SDS011;25774;52.256;9.356;2023-02-18T15:18:51;7.65;;;2.85;;
40072;SDS011;25774;52.256;9.356;2023-02-18T15:21:20;6.43;;;2.90;;
40072;SDS011;25774;52.256;9.356;2023-02-18T15:23:51;7.32;;;2.85;;
40072;SDS011;25774;52.256;9.356;2023-02-18T15:26:23;11.13;;;3.03;;
40072;SDS011;25774;52.256;9.356;2023-02-18T15:29:11;10.55;;;2.83;;
40072;SDS011;25774;52.256;9.356;2023-02-18T15:31:43;9.75;;;2.83;;
40072;SDS011;25774;52.256;9.356;2023-02-18T15:37:05;9.15;;;2.80;;
40072;SDS011;25774;52.256;9.356;2023-02-18T15:39:32;12.90;;;3.50;;
40072;SDS011;25774;52.256;9.356;2023-02-18T15:42:32;8.73;;;3.45;;
40072;SDS011;25774;52.256;9.356;2023-02-18T15:44:57;11.57;;;3.25;;
40072;SDS011;25774;52.256;9.356;2023-02-18T15:47:27;8.13;;;3.33;;
40072;SDS011;25774;52.256;9.356;2023-02-18T15:49:54;10.70;;;3.20;;
40072;SDS011;25774;52.256;9.356;2023-02-18T15:52:27;10.05;;;3.60;;
40072;SDS011;25774;52.256;9.356;2023-02-18T15:54:55;9.88;;;3.53;;
40072;SDS011;25774;52.256;9.356;2023-02-18T15:57:27;9.88;;;3.17;;
40072;SDS011;25774;52.256;9.356;2023-02-18T16:00:09;10.00;;;3.33;;
40072;SDS011;25774;52.256;9.356;2023-02-18T16:02:55;13.80;;;3.72;;
40072;SDS011;25774;52.256;9.356;2023-02-18T16:05:26;8.07;;;3.17;;
40072;SDS011;25774;52.256;9.356;2023-02-18T16:07:57;8.32;;;3.22;;
40072;SDS011;25774;52.256;9.356;2023-02-18T16:10:34;6.82;;;3.20;;
40072;SDS011;25774;52.256;9.356;2023-02-18T16:13:06;9.50;;;4.00;;
40072;SDS011;25774;52.256;9.356;2023-02-18T16:15:36;17.17;;;3.53;;
40072;SDS011;25774;52.256;9.356;2023-02-18T16:18:05;8.27;;;2.75;;
40072;SDS011;25774;52.256;9.356;2023-02-18T16:20:42;7.57;;;3.42;;
40072;SDS011;25774;52.256;9.356;2023-02-18T16:23:24;12.40;;;3.42;;
40072;SDS011;25774;52.256;9.356;2023-02-18T16:25:52;6.35;;;2.35;;
40072;SDS011;25774;52.256;9.356;2023-02-18T16:28:25;7.78;;;3.17;;
40072;SDS011;25774;52.256;9.356;2023-02-18T16:30:55;9.63;;;2.97;;
40072;SDS011;25774;52.256;9.356;2023-02-18T16:33:20;6.13;;;3.37;;
40072;SDS011;25774;52.256;9.356;2023-02-18T16:35:46;13.57;;;4.07;;
40072;SDS011;25774;52.256;9.356;2023-02-18T16:38:23;11.45;;;3.38;;
40072;SDS011;25774;52.256;9.356;2023-02-18T16:40:52;8.52;;;3.17;;
40072;SDS011;25774;52.256;9.356;2023-02-18T16:43:19;7.03;;;2.88;;
40072;SDS011;25774;52.256;9.356;2023-02-18T16:45:53;7.22;;;3.17;;
40072;SDS011;25774;52.256;9.356;2023-02-18T16:48:25;14.57;;;4.22;;
40072;SDS011;25774;52.256;9.356;2023-02-18T16:50:55;10.70;;;3.40;;
40072;SDS011;25774;52.256;9.356;2023-02-18T16:53:21;13.07;;;3.00;;
40072;SDS011;25774;52.256;9.356;2023-02-18T16:55:47;8.73;;;2.67;;
40072;SDS011;25774;52.256;9.356;2023-02-18T16:58:14;8.35;;;3.20;;
40072;SDS011;25774;52.256;9.356;2023-02-18T17:00:40;8.27;;;2.90;;
40072;SDS011;25774;52.256;9.356;2023-02-18T17:03:06;8.25;;;2.80;;
40072;SDS011;25774;52.256;9.356;2023-02-18T17:05:32;12.97;;;3.33;;
40072;SDS011;25774;52.256;9.356;2023-02-18T17:08:25;7.22;;;2.97;;
40072;SDS011;25774;52.256;9.356;2023-02-18T17:13:18;7.13;;;2.78;;
40072;SDS011;25774;52.256;9.356;2023-02-18T17:15:46;9.35;;;2.30;;
40072;SDS011;25774;52.256;9.356;2023-02-18T17:18:15;7.75;;;2.58;;
40072;SDS011;25774;52.256;9.356;2023-02-18T17:20:43;10.00;;;2.97;;
40072;SDS011;25774;52.256;9.356;2023-02-18T17:23:15;16.73;;;4.05;;
40072;SDS011;25774;52.256;9.356;2023-02-18T17:25:46;13.15;;;3.25;;
40072;SDS011;25774;52.256;9.356;2023-02-18T17:28:15;7.35;;;2.95;;
40072;SDS011;25774;52.256;9.356;2023-02-18T17:30:44;10.63;;;2.78;;
40072;SDS011;25774;52.256;9.356;2023-02-18T17:33:12;12.25;;;3.03;;
40072;SDS011;25774;52.256;9.356;2023-02-18T17:35:39;8.65;;;2.50;;
40072;SDS011;25774;52.256;9.356;2023-02-18T17:38:11;13.10;;;2.53;;
40072;SDS011;25774;52.256;9.356;2023-02-18T17:40:38;10.38;;;2.40;;
40072;SDS011;25774;52.256;9.356;2023-02-18T17:43:03;7.87;;;2.67;;
40072;SDS011;25774;52.256;9.356;2023-02-18T17:47:59;6.50;;;2.38;;
40072;SDS011;25774;52.256;9.356;2023-02-18T17:52:51;7.25;;;2.30;;
40072;SDS011;25774;52.256;9.356;2023-02-18T17:55:21;10.20;;;3.40;;
40072;SDS011;25774;52.256;9.356;2023-02-18T17:57:49;7.53;;;2.50;;
40072;SDS011;25774;52.256;9.356;2023-02-18T18:00:17;8.63;;;2.05;;
40072;SDS011;25774;52.256;9.356;2023-02-18T18:02:45;10.25;;;2.92;;
40072;SDS011;25774;52.256;9.356;2023-02-18T18:08:07;8.82;;;1.90;;
40072;SDS011;25774;52.256;9.356;2023-02-18T18:10:33;7.25;;;1.98;;